San Francisco, California
Traffic Map
Current Weather Conditions
San Francisco, California
Broken Clouds
Broken Clouds
66°
Feels Like: 66°
Wind Chill: 66° Ceiling: 18000
Heat Index: 66° Visibility: 10mi
Dew Point: 49° Wind: 15mph
Humidity: 54% Direction: 300° (WNW)
Pressure: 30.05in Gusts: 0mph
Raw Report DataKSFO 172256Z 30013KT 10SM FEW005 BKN180 19/09 A3005 RMK AO2 SLP177 T01890094
Traffic Incident Summary
Active as of:
Severity:
Category:
InformationThere was an issue retrieving the traffic information for this location. Please try a different location or try again shortly.
Advertisements